Longzhou, China
Current Conditions -  °F | °C
As of 8:00 PM on Friday 28 Nov 2014 (Local Time) from ZGNN Reporting Station
Clear Clear  
Wind Chill: 75°   Ceiling: Unl
Heat Index: 75°   Visibility: 6mi
Dew Point: 70°   Wind: 4mph
Humidity: 83%   Direction: 140°SE
Pressure: 29.85"   Gusts: 16mph
Location:  22.37°N, 106.75°E
Report Text: ZGNN 281200Z 14002G07MPS 120V190 CAVOK 24/21 Q1011 NOSIG
Loading
Personal Weather Stations






























Interactive Weather Map New forecast layout! Learn more

10-Day Weather Forecast

Advertisements
Track Severe Weather on mobile